sensor_id;sensor_type;location;lat;lon;timestamp;noise_LAeq;noise_LA_min;noise_LA_max;noise_LA01;noise_LA95
77133;Laerm;26708;50.304;19.028;2023-06-14T00:01:28;43.13;40.80;45.19;;
77133;Laerm;26708;50.304;19.028;2023-06-14T00:03:34;43.10;41.15;44.72;;
77133;Laerm;26708;50.304;19.028;2023-06-14T00:05:40;43.68;41.30;46.89;;
77133;Laerm;26708;50.304;19.028;2023-06-14T00:07:44;43.45;41.50;45.61;;
77133;Laerm;26708;50.304;19.028;2023-06-14T00:09:53;43.70;41.63;46.83;;
77133;Laerm;26708;50.304;19.028;2023-06-14T00:11:57;43.29;40.86;48.57;;
77133;Laerm;26708;50.304;19.028;2023-06-14T00:14:02;43.25;41.18;47.51;;
77133;Laerm;26708;50.304;19.028;2023-06-14T00:16:08;43.32;41.00;46.10;;
77133;Laerm;26708;50.304;19.028;2023-06-14T00:18:13;43.90;41.68;46.91;;
77133;Laerm;26708;50.304;19.028;2023-06-14T00:20:18;44.30;41.96;47.49;;
77133;Laerm;26708;50.304;19.028;2023-06-14T00:22:23;44.19;41.27;47.73;;
77133;Laerm;26708;50.304;19.028;2023-06-14T00:24:31;43.74;41.52;48.39;;
77133;Laerm;26708;50.304;19.028;2023-06-14T00:26:38;43.28;41.25;45.14;;
77133;Laerm;26708;50.304;19.028;2023-06-14T00:28:44;42.93;40.55;44.69;;
77133;Laerm;26708;50.304;19.028;2023-06-14T00:30:48;43.52;41.05;49.51;;
77133;Laerm;26708;50.304;19.028;2023-06-14T00:32:52;43.79;41.70;45.85;;
77133;Laerm;26708;50.304;19.028;2023-06-14T00:34:58;44.09;41.27;55.96;;
77133;Laerm;26708;50.304;19.028;2023-06-14T00:37:05;43.27;40.87;46.79;;
77133;Laerm;26708;50.304;19.028;2023-06-14T00:39:10;43.87;40.80;50.83;;
77133;Laerm;26708;50.304;19.028;2023-06-14T00:41:16;43.38;40.87;46.29;;
77133;Laerm;26708;50.304;19.028;2023-06-14T00:43:23;43.35;41.21;45.12;;
77133;Laerm;26708;50.304;19.028;2023-06-14T00:45:28;43.46;41.30;46.99;;
77133;Laerm;26708;50.304;19.028;2023-06-14T00:47:41;43.45;40.94;50.68;;
77133;Laerm;26708;50.304;19.028;2023-06-14T00:49:47;43.42;41.09;47.80;;
77133;Laerm;26708;50.304;19.028;2023-06-14T00:51:52;49.91;40.68;66.87;;
77133;Laerm;26708;50.304;19.028;2023-06-14T00:53:58;43.62;40.92;54.04;;
77133;Laerm;26708;50.304;19.028;2023-06-14T00:56:03;43.66;41.34;45.54;;
77133;Laerm;26708;50.304;19.028;2023-06-14T00:58:09;44.44;41.91;47.81;;
77133;Laerm;26708;50.304;19.028;2023-06-14T01:00:21;46.14;42.09;53.85;;
77133;Laerm;26708;50.304;19.028;2023-06-14T01:02:26;43.72;41.48;45.98;;
77133;Laerm;26708;50.304;19.028;2023-06-14T01:04:31;43.39;41.02;45.23;;
77133;Laerm;26708;50.304;19.028;2023-06-14T01:06:49;47.89;41.76;58.18;;
77133;Laerm;26708;50.304;19.028;2023-06-14T01:09:15;44.25;41.69;48.29;;
77133;Laerm;26708;50.304;19.028;2023-06-14T01:11:32;43.86;41.96;45.69;;
77133;Laerm;26708;50.304;19.028;2023-06-14T01:13:46;43.92;41.69;45.90;;
77133;Laerm;26708;50.304;19.028;2023-06-14T01:15:56;43.76;41.20;46.97;;
77133;Laerm;26708;50.304;19.028;2023-06-14T01:18:01;43.68;41.11;46.59;;
77133;Laerm;26708;50.304;19.028;2023-06-14T01:20:10;51.59;40.94;70.72;;
77133;Laerm;26708;50.304;19.028;2023-06-14T01:22:16;43.80;41.23;54.17;;
77133;Laerm;26708;50.304;19.028;2023-06-14T01:24:24;44.51;42.20;57.99;;
77133;Laerm;26708;50.304;19.028;2023-06-14T01:26:34;44.31;41.95;48.63;;
77133;Laerm;26708;50.304;19.028;2023-06-14T01:28:42;43.95;41.17;55.48;;
77133;Laerm;26708;50.304;19.028;2023-06-14T01:30:54;48.64;41.32;66.31;;
77133;Laerm;26708;50.304;19.028;2023-06-14T01:33:01;45.35;41.16;57.88;;
77133;Laerm;26708;50.304;19.028;2023-06-14T01:35:07;45.55;41.85;56.79;;
77133;Laerm;26708;50.304;19.028;2023-06-14T01:37:14;46.33;41.76;56.16;;
77133;Laerm;26708;50.304;19.028;2023-06-14T01:39:23;47.59;41.34;64.64;;
77133;Laerm;26708;50.304;19.028;2023-06-14T01:41:30;45.39;41.47;56.38;;
77133;Laerm;26708;50.304;19.028;2023-06-14T01:43:36;46.68;40.86;58.69;;
77133;Laerm;26708;50.304;19.028;2023-06-14T01:45:47;44.90;41.50;54.45;;
77133;Laerm;26708;50.304;19.028;2023-06-14T01:47:52;46.33;41.23;59.09;;
77133;Laerm;26708;50.304;19.028;2023-06-14T01:49:57;45.53;42.05;59.20;;
77133;Laerm;26708;50.304;19.028;2023-06-14T01:52:03;45.40;42.03;50.80;;
77133;Laerm;26708;50.304;19.028;2023-06-14T01:54:11;44.90;41.34;51.23;;
77133;Laerm;26708;50.304;19.028;2023-06-14T01:56:18;45.91;41.46;58.55;;
77133;Laerm;26708;50.304;19.028;2023-06-14T01:58:25;44.22;41.26;48.78;;
77133;Laerm;26708;50.304;19.028;2023-06-14T02:00:30;47.59;41.43;61.39;;
77133;Laerm;26708;50.304;19.028;2023-06-14T02:02:36;43.91;41.51;47.70;;
77133;Laerm;26708;50.304;19.028;2023-06-14T02:04:42;44.12;41.60;47.72;;
77133;Laerm;26708;50.304;19.028;2023-06-14T02:06:48;43.88;41.54;47.08;;
77133;Laerm;26708;50.304;19.028;2023-06-14T02:08:53;44.30;41.26;52.00;;
77133;Laerm;26708;50.304;19.028;2023-06-14T02:10:58;45.30;41.65;49.84;;
77133;Laerm;26708;50.304;19.028;2023-06-14T02:13:05;54.97;42.07;75.98;;
77133;Laerm;26708;50.304;19.028;2023-06-14T02:15:11;44.54;41.50;56.92;;
77133;Laerm;26708;50.304;19.028;2023-06-14T02:17:18;44.28;41.78;47.95;;
77133;Laerm;26708;50.304;19.028;2023-06-14T02:19:22;44.44;41.32;50.96;;
77133;Laerm;26708;50.304;19.028;2023-06-14T02:21:28;44.39;41.49;51.99;;
77133;Laerm;26708;50.304;19.028;2023-06-14T02:23:35;43.82;40.88;51.65;;
77133;Laerm;26708;50.304;19.028;2023-06-14T02:25:40;43.63;41.26;47.90;;
77133;Laerm;26708;50.304;19.028;2023-06-14T02:27:47;44.31;41.25;51.20;;
77133;Laerm;26708;50.304;19.028;2023-06-14T02:29:54;51.99;42.03;69.84;;
77133;Laerm;26708;50.304;19.028;2023-06-14T02:32:00;45.37;41.65;59.02;;
77133;Laerm;26708;50.304;19.028;2023-06-14T02:34:19;45.30;41.67;51.93;;
77133;Laerm;26708;50.304;19.028;2023-06-14T02:36:24;44.19;41.20;51.45;;
77133;Laerm;26708;50.304;19.028;2023-06-14T02:38:28;44.89;41.57;57.28;;
77133;Laerm;26708;50.304;19.028;2023-06-14T02:40:35;43.97;41.08;54.08;;
77133;Laerm;26708;50.304;19.028;2023-06-14T02:42:40;44.29;42.08;49.84;;
77133;Laerm;26708;50.304;19.028;2023-06-14T02:44:47;45.21;42.06;64.64;;
77133;Laerm;26708;50.304;19.028;2023-06-14T02:46:56;50.46;42.43;65.89;;
77133;Laerm;26708;50.304;19.028;2023-06-14T02:49:02;44.37;41.64;52.32;;
77133;Laerm;26708;50.304;19.028;2023-06-14T02:51:06;53.19;42.21;68.93;;
77133;Laerm;26708;50.304;19.028;2023-06-14T02:53:12;51.19;42.12;68.01;;
77133;Laerm;26708;50.304;19.028;2023-06-14T02:55:17;45.30;42.41;55.40;;
77133;Laerm;26708;50.304;19.028;2023-06-14T02:57:22;47.27;42.12;57.71;;
77133;Laerm;26708;50.304;19.028;2023-06-14T02:59:28;45.02;41.51;50.95;;
77133;Laerm;26708;50.304;19.028;2023-06-14T03:01:33;46.59;41.44;56.60;;
77133;Laerm;26708;50.304;19.028;2023-06-14T03:03:46;51.93;41.59;70.36;;
77133;Laerm;26708;50.304;19.028;2023-06-14T03:05:51;45.92;41.64;64.68;;
77133;Laerm;26708;50.304;19.028;2023-06-14T03:07:59;46.04;42.13;59.34;;
77133;Laerm;26708;50.304;19.028;2023-06-14T03:10:05;52.67;42.65;65.54;;
77133;Laerm;26708;50.304;19.028;2023-06-14T03:12:11;50.80;41.80;68.45;;
77133;Laerm;26708;50.304;19.028;2023-06-14T03:14:19;45.09;41.14;57.56;;
77133;Laerm;26708;50.304;19.028;2023-06-14T03:16:24;45.74;41.07;57.98;;
77133;Laerm;26708;50.304;19.028;2023-06-14T03:18:32;47.50;41.78;59.99;;
77133;Laerm;26708;50.304;19.028;2023-06-14T03:20:41;46.63;41.18;62.86;;
77133;Laerm;26708;50.304;19.028;2023-06-14T03:22:47;54.53;42.08;68.18;;
77133;Laerm;26708;50.304;19.028;2023-06-14T03:24:53;45.09;41.82;49.65;;
77133;Laerm;26708;50.304;19.028;2023-06-14T03:26:58;48.51;42.14;60.84;;
77133;Laerm;26708;50.304;19.028;2023-06-14T03:29:04;49.15;42.50;63.52;;
77133;Laerm;26708;50.304;19.028;2023-06-14T03:31:10;51.82;41.91;68.21;;
77133;Laerm;26708;50.304;19.028;2023-06-14T03:33:14;46.07;41.99;55.48;;
77133;Laerm;26708;50.304;19.028;2023-06-14T03:35:20;46.99;41.88;57.98;;
77133;Laerm;26708;50.304;19.028;2023-06-14T03:37:28;46.56;42.46;53.77;;
77133;Laerm;26708;50.304;19.028;2023-06-14T03:39:33;45.79;42.43;50.36;;
77133;Laerm;26708;50.304;19.028;2023-06-14T03:41:38;45.15;42.33;50.99;;
77133;Laerm;26708;50.304;19.028;2023-06-14T03:43:44;51.48;42.56;67.89;;
77133;Laerm;26708;50.304;19.028;2023-06-14T03:45:50;48.68;41.92;66.85;;
77133;Laerm;26708;50.304;19.028;2023-06-14T03:47:56;46.92;42.40;60.65;;
77133;Laerm;26708;50.304;19.028;2023-06-14T03:50:05;45.64;42.49;55.99;;
77133;Laerm;26708;50.304;19.028;2023-06-14T03:52:11;51.03;42.87;66.46;;
77133;Laerm;26708;50.304;19.028;2023-06-14T03:54:21;46.51;43.28;55.02;;
77133;Laerm;26708;50.304;19.028;2023-06-14T03:56:28;50.00;43.19;66.29;;
77133;Laerm;26708;50.304;19.028;2023-06-14T03:58:33;45.50;42.16;48.61;;
77133;Laerm;26708;50.304;19.028;2023-06-14T04:00:38;54.84;42.23;71.48;;
77133;Laerm;26708;50.304;19.028;2023-06-14T04:02:43;45.57;42.33;53.25;;
77133;Laerm;26708;50.304;19.028;2023-06-14T04:04:49;50.96;42.04;68.25;;
77133;Laerm;26708;50.304;19.028;2023-06-14T04:06:56;51.01;41.81;69.32;;
77133;Laerm;26708;50.304;19.028;2023-06-14T04:09:03;57.14;42.22;74.08;;
77133;Laerm;26708;50.304;19.028;2023-06-14T04:11:10;50.09;42.73;63.49;;
77133;Laerm;26708;50.304;19.028;2023-06-14T04:13:17;69.46;43.25;89.20;;
77133;Laerm;26708;50.304;19.028;2023-06-14T04:15:22;54.45;43.45;70.27;;
77133;Laerm;26708;50.304;19.028;2023-06-14T04:17:30;45.45;42.54;52.74;;
77133;Laerm;26708;50.304;19.028;2023-06-14T04:19:36;52.69;42.31;68.95;;
77133;Laerm;26708;50.304;19.028;2023-06-14T04:21:42;57.19;43.15;74.34;;
77133;Laerm;26708;50.304;19.028;2023-06-14T04:23:47;51.65;43.35;67.21;;
77133;Laerm;26708;50.304;19.028;2023-06-14T04:25:56;56.32;42.59;71.58;;
77133;Laerm;26708;50.304;19.028;2023-06-14T04:28:07;54.92;42.13;68.37;;
77133;Laerm;26708;50.304;19.028;2023-06-14T04:30:13;51.69;42.16;64.61;;
77133;Laerm;26708;50.304;19.028;2023-06-14T04:32:26;56.41;43.35;69.55;;
77133;Laerm;26708;50.304;19.028;2023-06-14T04:34:32;56.13;43.29;68.91;;
77133;Laerm;26708;50.304;19.028;2023-06-14T04:36:39;55.33;43.64;68.60;;
77133;Laerm;26708;50.304;19.028;2023-06-14T04:38:45;53.98;42.96;68.29;;
77133;Laerm;26708;50.304;19.028;2023-06-14T04:40:51;50.23;44.05;63.61;;
77133;Laerm;26708;50.304;19.028;2023-06-14T04:43:00;57.40;43.71;71.78;;
77133;Laerm;26708;50.304;19.028;2023-06-14T04:45:10;54.13;43.84;66.98;;
77133;Laerm;26708;50.304;19.028;2023-06-14T04:47:17;55.11;44.30;70.00;;
77133;Laerm;26708;50.304;19.028;2023-06-14T04:49:22;55.28;43.66;66.83;;
77133;Laerm;26708;50.304;19.028;2023-06-14T04:51:29;55.68;42.82;68.16;;
77133;Laerm;26708;50.304;19.028;2023-06-14T04:53:36;56.26;43.58;68.37;;
77133;Laerm;26708;50.304;19.028;2023-06-14T04:55:41;49.98;43.64;62.06;;
77133;Laerm;26708;50.304;19.028;2023-06-14T04:57:47;53.13;43.31;68.61;;
77133;Laerm;26708;50.304;19.028;2023-06-14T04:59:56;52.64;42.43;66.17;;
77133;Laerm;26708;50.304;19.028;2023-06-14T05:02:05;55.87;43.98;71.09;;
77133;Laerm;26708;50.304;19.028;2023-06-14T05:04:10;54.80;43.52;67.95;;
77133;Laerm;26708;50.304;19.028;2023-06-14T05:06:15;51.78;43.03;66.42;;
77133;Laerm;26708;50.304;19.028;2023-06-14T05:08:21;58.22;44.35;72.08;;
77133;Laerm;26708;50.304;19.028;2023-06-14T05:10:28;55.82;44.71;70.45;;
77133;Laerm;26708;50.304;19.028;2023-06-14T05:12:34;53.66;43.48;67.71;;
77133;Laerm;26708;50.304;19.028;2023-06-14T05:14:40;52.21;42.69;67.56;;
77133;Laerm;26708;50.304;19.028;2023-06-14T05:16:45;56.87;43.27;70.04;;
77133;Laerm;26708;50.304;19.028;2023-06-14T05:18:53;53.19;43.81;64.89;;
77133;Laerm;26708;50.304;19.028;2023-06-14T05:20:59;54.72;43.84;67.97;;
77133;Laerm;26708;50.304;19.028;2023-06-14T05:23:05;55.05;44.38;68.28;;
77133;Laerm;26708;50.304;19.028;2023-06-14T05:25:10;58.15;43.98;69.23;;
77133;Laerm;26708;50.304;19.028;2023-06-14T05:27:16;58.37;43.89;70.36;;
77133;Laerm;26708;50.304;19.028;2023-06-14T05:29:21;55.45;42.93;68.73;;
77133;Laerm;26708;50.304;19.028;2023-06-14T05:31:26;56.20;44.19;69.36;;
77133;Laerm;26708;50.304;19.028;2023-06-14T05:33:31;54.80;44.99;67.42;;
77133;Laerm;26708;50.304;19.028;2023-06-14T05:35:38;46.72;43.50;51.83;;
77133;Laerm;26708;50.304;19.028;2023-06-14T05:37:44;51.25;42.89;65.24;;
77133;Laerm;26708;50.304;19.028;2023-06-14T05:39:49;57.76;44.04;70.01;;
77133;Laerm;26708;50.304;19.028;2023-06-14T05:41:54;55.98;44.06;68.74;;
77133;Laerm;26708;50.304;19.028;2023-06-14T05:43:59;56.64;44.04;69.27;;
77133;Laerm;26708;50.304;19.028;2023-06-14T05:46:04;56.97;43.38;71.86;;
77133;Laerm;26708;50.304;19.028;2023-06-14T05:48:08;54.39;43.39;67.10;;
77133;Laerm;26708;50.304;19.028;2023-06-14T05:50:14;55.87;44.58;69.82;;
77133;Laerm;26708;50.304;19.028;2023-06-14T05:52:21;58.21;44.36;70.95;;
77133;Laerm;26708;50.304;19.028;2023-06-14T05:54:26;55.49;44.87;66.11;;
77133;Laerm;26708;50.304;19.028;2023-06-14T05:56:34;56.32;44.21;68.69;;
77133;Laerm;26708;50.304;19.028;2023-06-14T05:58:39;60.25;44.19;77.37;;
77133;Laerm;26708;50.304;19.028;2023-06-14T06:00:47;57.13;44.37;70.33;;
77133;Laerm;26708;50.304;19.028;2023-06-14T06:02:53;57.59;43.06;71.43;;
77133;Laerm;26708;50.304;19.028;2023-06-14T06:04:58;54.59;43.50;71.61;;
77133;Laerm;26708;50.304;19.028;2023-06-14T06:07:04;59.06;46.45;72.48;;
77133;Laerm;26708;50.304;19.028;2023-06-14T06:09:12;48.64;43.71;60.78;;
77133;Laerm;26708;50.304;19.028;2023-06-14T06:11:16;59.23;43.93;73.34;;
77133;Laerm;26708;50.304;19.028;2023-06-14T06:13:21;52.88;43.08;66.94;;
77133;Laerm;26708;50.304;19.028;2023-06-14T06:15:27;52.17;42.67;66.05;;
77133;Laerm;26708;50.304;19.028;2023-06-14T06:17:32;53.45;43.86;68.04;;
77133;Laerm;26708;50.304;19.028;2023-06-14T06:19:36;53.54;43.28;67.38;;
77133;Laerm;26708;50.304;19.028;2023-06-14T06:21:42;57.65;43.64;74.58;;
77133;Laerm;26708;50.304;19.028;2023-06-14T06:23:48;56.52;44.29;68.15;;
77133;Laerm;26708;50.304;19.028;2023-06-14T06:25:55;55.45;44.58;66.62;;
77133;Laerm;26708;50.304;19.028;2023-06-14T06:28:00;53.15;43.10;65.52;;
77133;Laerm;26708;50.304;19.028;2023-06-14T06:30:07;53.08;43.26;68.76;;
77133;Laerm;26708;50.304;19.028;2023-06-14T06:32:12;60.07;42.89;74.45;;
77133;Laerm;26708;50.304;19.028;2023-06-14T06:34:17;57.09;43.79;69.20;;
77133;Laerm;26708;50.304;19.028;2023-06-14T06:36:22;55.21;43.69;69.51;;
77133;Laerm;26708;50.304;19.028;2023-06-14T06:38:27;55.67;43.91;68.31;;
77133;Laerm;26708;50.304;19.028;2023-06-14T06:40:32;55.71;44.33;72.97;;
77133;Laerm;26708;50.304;19.028;2023-06-14T06:42:40;54.10;42.75;68.97;;
77133;Laerm;26708;50.304;19.028;2023-06-14T06:44:50;56.78;43.14;69.04;;
77133;Laerm;26708;50.304;19.028;2023-06-14T06:46:55;57.02;44.57;74.17;;
77133;Laerm;26708;50.304;19.028;2023-06-14T06:49:00;54.83;43.85;65.75;;
77133;Laerm;26708;50.304;19.028;2023-06-14T06:51:04;59.49;43.93;75.64;;
77133;Laerm;26708;50.304;19.028;2023-06-14T06:53:10;57.18;45.46;68.15;;
77133;Laerm;26708;50.304;19.028;2023-06-14T06:55:15;57.11;43.10;69.41;;
77133;Laerm;26708;50.304;19.028;2023-06-14T06:57:20;56.52;42.94;71.49;;
77133;Laerm;26708;50.304;19.028;2023-06-14T06:59:28;54.49;44.33;69.42;;
77133;Laerm;26708;50.304;19.028;2023-06-14T07:01:33;55.44;44.09;69.92;;
77133;Laerm;26708;50.304;19.028;2023-06-14T07:03:37;56.55;44.39;71.48;;
77133;Laerm;26708;50.304;19.028;2023-06-14T07:05:43;52.66;43.36;65.34;;
77133;Laerm;26708;50.304;19.028;2023-06-14T07:07:47;56.18;44.45;70.31;;
77133;Laerm;26708;50.304;19.028;2023-06-14T07:09:52;57.57;44.37;68.84;;
77133;Laerm;26708;50.304;19.028;2023-06-14T07:11:59;55.81;43.36;68.68;;
77133;Laerm;26708;50.304;19.028;2023-06-14T07:14:05;55.23;44.00;69.00;;
77133;Laerm;26708;50.304;19.028;2023-06-14T07:16:12;55.58;46.01;67.84;;
77133;Laerm;26708;50.304;19.028;2023-06-14T07:18:17;58.31;44.49;73.38;;
77133;Laerm;26708;50.304;19.028;2023-06-14T07:20:22;56.74;43.03;70.97;;
77133;Laerm;26708;50.304;19.028;2023-06-14T07:22:27;57.99;43.86;72.73;;
77133;Laerm;26708;50.304;19.028;2023-06-14T07:24:32;59.42;45.26;73.18;;
77133;Laerm;26708;50.304;19.028;2023-06-14T07:26:37;49.14;43.73;63.23;;
77133;Laerm;26708;50.304;19.028;2023-06-14T07:28:42;57.57;44.32;67.51;;
77133;Laerm;26708;50.304;19.028;2023-06-14T07:30:51;59.82;44.35;75.60;;
77133;Laerm;26708;50.304;19.028;2023-06-14T07:32:58;56.77;44.83;73.32;;
77133;Laerm;26708;50.304;19.028;2023-06-14T07:35:03;56.93;43.87;69.06;;
77133;Laerm;26708;50.304;19.028;2023-06-14T07:37:08;52.18;43.25;67.50;;
77133;Laerm;26708;50.304;19.028;2023-06-14T07:39:13;55.44;44.62;66.17;;
77133;Laerm;26708;50.304;19.028;2023-06-14T07:41:18;57.32;44.55;68.92;;
77133;Laerm;26708;50.304;19.028;2023-06-14T07:43:23;55.79;44.48;68.93;;
77133;Laerm;26708;50.304;19.028;2023-06-14T07:45:28;52.26;43.18;63.84;;
77133;Laerm;26708;50.304;19.028;2023-06-14T07:47:32;57.33;43.84;69.28;;
77133;Laerm;26708;50.304;19.028;2023-06-14T07:49:41;56.52;44.05;68.20;;
77133;Laerm;26708;50.304;19.028;2023-06-14T07:51:45;54.11;43.96;68.74;;
77133;Laerm;26708;50.304;19.028;2023-06-14T07:53:51;56.14;44.76;67.22;;
77133;Laerm;26708;50.304;19.028;2023-06-14T07:55:57;55.03;42.87;67.32;;
77133;Laerm;26708;50.304;19.028;2023-06-14T07:58:02;57.29;43.70;70.34;;
77133;Laerm;26708;50.304;19.028;2023-06-14T08:00:09;53.53;44.04;66.05;;
77133;Laerm;26708;50.304;19.028;2023-06-14T08:02:17;57.36;42.80;71.07;;
77133;Laerm;26708;50.304;19.028;2023-06-14T08:04:22;54.54;43.75;66.72;;
77133;Laerm;26708;50.304;19.028;2023-06-14T08:06:29;57.77;42.42;69.54;;
77133;Laerm;26708;50.304;19.028;2023-06-14T08:08:35;55.75;43.83;69.26;;
77133;Laerm;26708;50.304;19.028;2023-06-14T08:10:40;55.37;44.42;67.56;;
77133;Laerm;26708;50.304;19.028;2023-06-14T08:12:45;57.15;44.23;71.70;;
77133;Laerm;26708;50.304;19.028;2023-06-14T08:14:58;54.12;44.06;71.02;;
77133;Laerm;26708;50.304;19.028;2023-06-14T08:17:03;59.99;44.08;70.19;;
77133;Laerm;26708;50.304;19.028;2023-06-14T08:19:08;60.29;44.33;72.94;;
77133;Laerm;26708;50.304;19.028;2023-06-14T08:21:13;55.82;44.11;71.40;;
77133;Laerm;26708;50.304;19.028;2023-06-14T08:23:22;55.28;44.08;65.51;;
77133;Laerm;26708;50.304;19.028;2023-06-14T08:25:26;57.01;44.18;65.78;;
77133;Laerm;26708;50.304;19.028;2023-06-14T08:27:31;57.36;44.27;68.56;;
77133;Laerm;26708;50.304;19.028;2023-06-14T08:29:36;56.58;44.22;70.98;;
77133;Laerm;26708;50.304;19.028;2023-06-14T08:31:41;58.52;44.17;68.20;;
77133;Laerm;26708;50.304;19.028;2023-06-14T08:33:47;56.59;47.14;65.98;;
77133;Laerm;26708;50.304;19.028;2023-06-14T08:35:51;56.06;46.09;67.73;;
77133;Laerm;26708;50.304;19.028;2023-06-14T08:37:56;59.72;50.66;72.70;;
77133;Laerm;26708;50.304;19.028;2023-06-14T08:40:07;62.95;54.21;73.62;;
77133;Laerm;26708;50.304;19.028;2023-06-14T08:42:21;60.94;55.04;72.16;;
77133;Laerm;26708;50.304;19.028;2023-06-14T08:44:28;63.89;56.65;72.72;;
77133;Laerm;26708;50.304;19.028;2023-06-14T08:46:37;61.27;51.11;70.87;;
77133;Laerm;26708;50.304;19.028;2023-06-14T08:48:43;58.44;47.97;69.28;;
77133;Laerm;26708;50.304;19.028;2023-06-14T08:50:48;61.84;47.73;77.29;;
77133;Laerm;26708;50.304;19.028;2023-06-14T08:52:57;61.24;48.11;73.99;;
77133;Laerm;26708;50.304;19.028;2023-06-14T08:55:08;62.95;46.60;76.05;;
77133;Laerm;26708;50.304;19.028;2023-06-14T08:57:15;60.85;47.21;76.22;;
77133;Laerm;26708;50.304;19.028;2023-06-14T08:59:25;59.27;47.41;69.27;;
77133;Laerm;26708;50.304;19.028;2023-06-14T09:01:34;58.27;46.25;68.86;;
77133;Laerm;26708;50.304;19.028;2023-06-14T09:03:41;59.51;45.44;71.14;;
77133;Laerm;26708;50.304;19.028;2023-06-14T09:05:47;60.13;46.08;71.98;;
77133;Laerm;26708;50.304;19.028;2023-06-14T09:07:54;57.42;45.09;68.69;;
77133;Laerm;26708;50.304;19.028;2023-06-14T09:10:14;58.82;44.12;71.32;;
77133;Laerm;26708;50.304;19.028;2023-06-14T09:12:21;58.58;43.81;73.46;;
77133;Laerm;26708;50.304;19.028;2023-06-14T09:14:26;58.72;45.04;69.85;;
77133;Laerm;26708;50.304;19.028;2023-06-14T09:16:32;55.49;44.83;67.09;;
77133;Laerm;26708;50.304;19.028;2023-06-14T09:18:41;59.86;44.87;73.16;;
77133;Laerm;26708;50.304;19.028;2023-06-14T09:20:49;57.85;47.00;70.36;;
77133;Laerm;26708;50.304;19.028;2023-06-14T09:22:54;59.04;45.63;71.56;;
77133;Laerm;26708;50.304;19.028;2023-06-14T09:25:00;56.67;44.36;68.79;;
77133;Laerm;26708;50.304;19.028;2023-06-14T09:27:08;55.69;43.24;66.82;;
77133;Laerm;26708;50.304;19.028;2023-06-14T09:29:12;54.40;43.68;67.69;;
77133;Laerm;26708;50.304;19.028;2023-06-14T09:31:20;58.65;44.28;71.27;;
77133;Laerm;26708;50.304;19.028;2023-06-14T09:33:26;52.09;44.30;65.94;;
77133;Laerm;26708;50.304;19.028;2023-06-14T09:35:33;57.65;44.05;69.28;;
77133;Laerm;26708;50.304;19.028;2023-06-14T09:37:41;56.44;44.27;67.37;;
77133;Laerm;26708;50.304;19.028;2023-06-14T09:39:50;57.10;44.26;70.58;;
77133;Laerm;26708;50.304;19.028;2023-06-14T09:41:55;58.43;43.89;69.81;;
77133;Laerm;26708;50.304;19.028;2023-06-14T09:44:07;58.03;45.61;67.72;;
77133;Laerm;26708;50.304;19.028;2023-06-14T09:46:12;52.45;43.93;63.46;;
77133;Laerm;26708;50.304;19.028;2023-06-14T09:48:21;56.93;44.93;68.22;;
77133;Laerm;26708;50.304;19.028;2023-06-14T09:50:28;58.24;45.17;70.85;;
77133;Laerm;26708;50.304;19.028;2023-06-14T09:52:34;57.12;45.51;73.49;;
77133;Laerm;26708;50.304;19.028;2023-06-14T09:54:44;56.20;44.90;68.21;;
77133;Laerm;26708;50.304;19.028;2023-06-14T09:56:52;56.02;44.34;66.69;;
77133;Laerm;26708;50.304;19.028;2023-06-14T09:59:00;57.35;44.37;70.75;;
77133;Laerm;26708;50.304;19.028;2023-06-14T10:01:13;59.54;45.79;70.83;;
77133;Laerm;26708;50.304;19.028;2023-06-14T10:03:27;56.39;45.11;68.25;;
77133;Laerm;26708;50.304;19.028;2023-06-14T10:05:36;53.96;44.56;65.77;;
77133;Laerm;26708;50.304;19.028;2023-06-14T10:07:50;58.13;44.62;68.45;;
77133;Laerm;26708;50.304;19.028;2023-06-14T10:09:59;59.60;44.57;72.71;;
77133;Laerm;26708;50.304;19.028;2023-06-14T10:12:08;55.36;43.38;67.27;;
77133;Laerm;26708;50.304;19.028;2023-06-14T10:14:14;58.05;44.29;71.36;;
77133;Laerm;26708;50.304;19.028;2023-06-14T10:16:31;57.56;43.69;67.87;;
77133;Laerm;26708;50.304;19.028;2023-06-14T10:18:50;56.18;43.93;71.49;;
77133;Laerm;26708;50.304;19.028;2023-06-14T10:21:08;57.57;44.05;72.27;;
77133;Laerm;26708;50.304;19.028;2023-06-14T10:23:23;58.05;44.39;68.93;;
77133;Laerm;26708;50.304;19.028;2023-06-14T10:25:30;53.46;43.86;66.87;;
77133;Laerm;26708;50.304;19.028;2023-06-14T10:27:35;56.86;44.72;68.39;;
77133;Laerm;26708;50.304;19.028;2023-06-14T10:30:03;61.60;44.09;78.22;;
77133;Laerm;26708;50.304;19.028;2023-06-14T10:32:10;57.55;44.38;69.92;;
77133;Laerm;26708;50.304;19.028;2023-06-14T10:34:25;59.92;48.89;71.20;;
77133;Laerm;26708;50.304;19.028;2023-06-14T10:36:33;59.10;48.83;71.37;;
77133;Laerm;26708;50.304;19.028;2023-06-14T10:38:38;59.34;47.12;70.27;;
77133;Laerm;26708;50.304;19.028;2023-06-14T10:40:54;56.68;46.42;68.24;;
77133;Laerm;26708;50.304;19.028;2023-06-14T10:43:00;56.14;46.12;69.35;;
77133;Laerm;26708;50.304;19.028;2023-06-14T10:45:07;57.32;47.00;69.78;;
77133;Laerm;26708;50.304;19.028;2023-06-14T10:47:37;56.97;45.89;67.90;;
77133;Laerm;26708;50.304;19.028;2023-06-14T10:49:49;59.66;46.54;72.91;;
77133;Laerm;26708;50.304;19.028;2023-06-14T10:51:57;59.88;46.48;72.39;;
77133;Laerm;26708;50.304;19.028;2023-06-14T10:54:02;57.48;46.10;72.50;;
77133;Laerm;26708;50.304;19.028;2023-06-14T10:56:09;60.53;46.16;70.47;;
77133;Laerm;26708;50.304;19.028;2023-06-14T10:58:13;60.09;46.25;72.61;;
77133;Laerm;26708;50.304;19.028;2023-06-14T11:00:21;60.02;46.79;76.28;;
77133;Laerm;26708;50.304;19.028;2023-06-14T11:05:42;58.05;45.93;71.87;;
77133;Laerm;26708;50.304;19.028;2023-06-14T11:08:39;58.24;45.14;70.33;;
77133;Laerm;26708;50.304;19.028;2023-06-14T11:10:45;60.93;47.47;71.88;;
77133;Laerm;26708;50.304;19.028;2023-06-14T11:12:55;58.07;47.65;69.91;;
77133;Laerm;26708;50.304;19.028;2023-06-14T11:15:01;57.59;47.66;68.35;;
77133;Laerm;26708;50.304;19.028;2023-06-14T11:17:11;58.97;47.85;70.53;;
77133;Laerm;26708;50.304;19.028;2023-06-14T11:19:16;60.00;47.86;73.07;;
77133;Laerm;26708;50.304;19.028;2023-06-14T11:21:27;60.93;46.64;75.13;;
77133;Laerm;26708;50.304;19.028;2023-06-14T11:23:32;56.31;45.64;69.97;;
77133;Laerm;26708;50.304;19.028;2023-06-14T11:25:37;56.71;44.89;68.03;;
77133;Laerm;26708;50.304;19.028;2023-06-14T11:27:46;60.38;47.35;69.42;;
77133;Laerm;26708;50.304;19.028;2023-06-14T11:29:53;60.09;46.11;72.11;;
77133;Laerm;26708;50.304;19.028;2023-06-14T11:32:10;59.64;44.93;70.79;;
77133;Laerm;26708;50.304;19.028;2023-06-14T11:34:18;59.61;45.55;72.22;;
77133;Laerm;26708;50.304;19.028;2023-06-14T11:36:26;57.28;43.86;68.87;;
77133;Laerm;26708;50.304;19.028;2023-06-14T11:38:35;58.89;45.42;72.21;;
77133;Laerm;26708;50.304;19.028;2023-06-14T11:40:40;59.55;45.44;70.11;;
77133;Laerm;26708;50.304;19.028;2023-06-14T11:42:45;56.38;45.88;70.18;;
77133;Laerm;26708;50.304;19.028;2023-06-14T11:44:50;58.84;45.71;70.56;;